Printer, KY (41655)

7:17 AM EDT on April 27, 2017 (GMT -0400)
Appalachian foot hills | | Change Station

Elev 720 ft 37.56 °N, 82.63 °W | Updated 5 minutes ago

Partly Cloudy
Partly Cloudy
54.3 °F
Feels Like 54.3 °F
N
0.0
Wind Variable Wind from ESE

Today
High -- | Low -- °F
--% Chance of Precip.
Yesterday
High -- | Low -- °F
Precip. -- in
Pressure 29.72 in
Visibility 10.0 miles
Clouds Clear
Dew Point 54 °F
Humidity 99%
Rainfall 0.81 in
Snow Depth Not available.
6:40 AM 8:17 PM
New Moon, 1% visible
METAR KSJS 271055Z AUTO 18004KT 10SM CLR 18/12 A2972 RMK AO2 T01780123
Pressure 29.72 in
Visibility 10.0 miles
Clouds Clear
Dew Point 54 °F
Humidity 99%
Rainfall 0.81 in
Snow Depth Not available.
6:40 AM 8:17 PM
New Moon, 1% visible
METAR KSJS 271055Z AUTO 18004KT 10SM CLR 18/12 A2972 RMK AO2 T01780123

Get Severe Weather Alerts

Thanks for signing up!

Be on the lookout for a verification email in your inbox.

You'll start receiving the daily forecast at 8 AM.

×

10-Day Weather Forecast

Almanac

Astronomy

Apr. 27, 2017 Rise Set
Actual Time
Civil Twilight
Nautical Twilight
Astronomical Twilight
Moon
Length of Visible Light
Length of Day
Tomorrow will be .
, % of the Moon is Illuminated

Today's Extremes

State Highs State Lows

Community

WunderPhotos

WunderBlog® & News

Nearby

Air Quality

  Air Quality AQ Index Pollutant
Not available.

Snow Depth

Station Depth Elevation

Earthquake Activity

City Distance Mag. Time & Date
Minimum magnitude displayed is 2.5.

Coastal Water Temperatures

Place Temperature

Stations

Nearby Weather Stations

Station Location Temp. Windchill Dew Point Humidity Wind Precip. Elev Updated Type
                   

Watches & Warnings

There are currently no watches in effect.